sensor_id;sensor_type;location;lat;lon;timestamp;pressure;altitude;pressure_sealevel;temperature;humidity
15272;BME280;7737;51.578;7.268;2023-05-07T00:00:43;101118.81;;;14.60;100.00
15272;BME280;7737;51.578;7.268;2023-05-07T00:03:09;101124.00;;;14.63;100.00
15272;BME280;7737;51.578;7.268;2023-05-07T00:05:37;101125.97;;;14.59;100.00
15272;BME280;7737;51.578;7.268;2023-05-07T00:08:04;101128.31;;;14.66;100.00
15272;BME280;7737;51.578;7.268;2023-05-07T00:10:31;101135.06;;;14.57;100.00
15272;BME280;7737;51.578;7.268;2023-05-07T00:12:57;101131.25;;;14.61;100.00
15272;BME280;7737;51.578;7.268;2023-05-07T00:15:24;101138.81;;;14.69;100.00
15272;BME280;7737;51.578;7.268;2023-05-07T00:17:50;101135.94;;;14.57;100.00
15272;BME280;7737;51.578;7.268;2023-05-07T00:20:17;101148.44;;;14.57;100.00
15272;BME280;7737;51.578;7.268;2023-05-07T00:22:45;101142.69;;;14.49;100.00
15272;BME280;7737;51.578;7.268;2023-05-07T00:25:11;101144.75;;;14.44;100.00
15272;BME280;7737;51.578;7.268;2023-05-07T00:27:38;101143.81;;;14.45;100.00
15272;BME280;7737;51.578;7.268;2023-05-07T00:30:05;101139.41;;;14.44;100.00
15272;BME280;7737;51.578;7.268;2023-05-07T00:32:32;101134.81;;;14.46;100.00
15272;BME280;7737;51.578;7.268;2023-05-07T00:34:59;101132.94;;;14.48;100.00
15272;BME280;7737;51.578;7.268;2023-05-07T00:37:26;101141.16;;;14.45;100.00
15272;BME280;7737;51.578;7.268;2023-05-07T00:39:53;101135.00;;;14.43;100.00
15272;BME280;7737;51.578;7.268;2023-05-07T00:42:20;101139.75;;;14.38;100.00
15272;BME280;7737;51.578;7.268;2023-05-07T00:44:47;101143.22;;;14.40;100.00
15272;BME280;7737;51.578;7.268;2023-05-07T00:47:14;101144.28;;;14.37;100.00
15272;BME280;7737;51.578;7.268;2023-05-07T00:49:42;101138.38;;;14.31;100.00
15272;BME280;7737;51.578;7.268;2023-05-07T00:52:11;101132.78;;;14.35;100.00
15272;BME280;7737;51.578;7.268;2023-05-07T00:54:40;101132.78;;;14.35;100.00
15272;BME280;7737;51.578;7.268;2023-05-07T00:57:09;101133.13;;;14.29;100.00
15272;BME280;7737;51.578;7.268;2023-05-07T00:59:36;101133.47;;;14.23;100.00
15272;BME280;7737;51.578;7.268;2023-05-07T01:02:03;101125.63;;;14.20;100.00
15272;BME280;7737;51.578;7.268;2023-05-07T01:04:29;101127.53;;;14.18;100.00
15272;BME280;7737;51.578;7.268;2023-05-07T01:06:56;101119.56;;;14.17;100.00
15272;BME280;7737;51.578;7.268;2023-05-07T01:09:25;101114.50;;;14.12;100.00
15272;BME280;7737;51.578;7.268;2023-05-07T01:11:52;101116.13;;;14.15;100.00
15272;BME280;7737;51.578;7.268;2023-05-07T01:14:21;101121.16;;;14.21;100.00
15272;BME280;7737;51.578;7.268;2023-05-07T01:16:47;101125.63;;;14.20;100.00
15272;BME280;7737;51.578;7.268;2023-05-07T01:19:18;101138.53;;;14.28;100.00
15272;BME280;7737;51.578;7.268;2023-05-07T01:21:51;101129.25;;;14.35;100.00
15272;BME280;7737;51.578;7.268;2023-05-07T01:24:18;101127.78;;;14.29;100.00
15272;BME280;7737;51.578;7.268;2023-05-07T01:26:45;101134.63;;;14.35;100.00
15272;BME280;7737;51.578;7.268;2023-05-07T01:29:11;101124.94;;;14.32;100.00
15272;BME280;7737;51.578;7.268;2023-05-07T01:31:39;101131.50;;;14.27;100.00
15272;BME280;7737;51.578;7.268;2023-05-07T01:34:10;101132.16;;;14.30;100.00
15272;BME280;7737;51.578;7.268;2023-05-07T01:36:39;101134.63;;;14.35;100.00
15272;BME280;7737;51.578;7.268;2023-05-07T01:39:09;101134.63;;;14.35;100.00
15272;BME280;7737;51.578;7.268;2023-05-07T01:41:38;101136.84;;;14.42;100.00
15272;BME280;7737;51.578;7.268;2023-05-07T01:44:05;101133.66;;;14.36;100.00
15272;BME280;7737;51.578;7.268;2023-05-07T01:46:32;101135.56;;;14.34;100.00
15272;BME280;7737;51.578;7.268;2023-05-07T01:48:59;101132.78;;;14.35;100.00
15272;BME280;7737;51.578;7.268;2023-05-07T01:51:26;101143.59;;;14.34;100.00
15272;BME280;7737;51.578;7.268;2023-05-07T01:53:53;101148.16;;;14.32;100.00
15272;BME280;7737;51.578;7.268;2023-05-07T01:56:19;101156.78;;;14.37;100.00
15272;BME280;7737;51.578;7.268;2023-05-07T01:58:47;101146.31;;;14.32;100.00
15272;BME280;7737;51.578;7.268;2023-05-07T02:01:14;101146.66;;;14.26;100.00
15272;BME280;7737;51.578;7.268;2023-05-07T02:03:41;101135.28;;;14.23;100.00
15272;BME280;7737;51.578;7.268;2023-05-07T02:06:07;101145.09;;;14.22;100.00
15272;BME280;7737;51.578;7.268;2023-05-07T02:08:34;101110.78;;;14.15;100.00
15272;BME280;7737;51.578;7.268;2023-05-07T02:11:01;101107.19;;;14.16;100.00
15272;BME280;7737;51.578;7.268;2023-05-07T02:13:29;101112.34;;;14.19;100.00
15272;BME280;7737;51.578;7.268;2023-05-07T02:15:57;101103.53;;;14.17;100.00
15272;BME280;7737;51.578;7.268;2023-05-07T02:18:24;101103.75;;;14.14;100.00
15272;BME280;7737;51.578;7.268;2023-05-07T02:20:50;101112.34;;;14.19;100.00
15272;BME280;7737;51.578;7.268;2023-05-07T02:23:17;101119.56;;;14.17;100.00
15272;BME280;7737;51.578;7.268;2023-05-07T02:25:43;101115.97;;;14.18;100.00
15272;BME280;7737;51.578;7.268;2023-05-07T02:28:11;101125.13;;;14.14;100.00
15272;BME280;7737;51.578;7.268;2023-05-07T02:30:38;101113.03;;;14.07;100.00
15272;BME280;7737;51.578;7.268;2023-05-07T02:33:06;101110.38;;;14.07;100.00
15272;BME280;7737;51.578;7.268;2023-05-07T02:35:33;101114.59;;;14.11;100.00
15272;BME280;7737;51.578;7.268;2023-05-07T02:38:00;101110.97;;;14.12;100.00
15272;BME280;7737;51.578;7.268;2023-05-07T02:40:26;101113.63;;;14.12;100.00
15272;BME280;7737;51.578;7.268;2023-05-07T02:42:53;101121.66;;;14.12;100.00
15272;BME280;7737;51.578;7.268;2023-05-07T02:45:20;101120.91;;;14.10;100.00
15272;BME280;7737;51.578;7.268;2023-05-07T02:47:46;101125.47;;;14.08;100.00
15272;BME280;7737;51.578;7.268;2023-05-07T02:50:14;101128.19;;;14.22;100.00
15272;BME280;7737;51.578;7.268;2023-05-07T02:52:41;101127.19;;;14.09;100.00
15272;BME280;7737;51.578;7.268;2023-05-07T02:55:08;101123.56;;;14.10;100.00
15272;BME280;7737;51.578;7.268;2023-05-07T02:57:34;101122.81;;;14.08;100.00
15272;BME280;7737;51.578;7.268;2023-05-07T03:00:10;101121.50;;;14.15;100.00
15272;BME280;7737;51.578;7.268;2023-05-07T03:02:37;101124.09;;;14.16;100.00
15272;BME280;7737;51.578;7.268;2023-05-07T03:05:04;101119.97;;;14.11;100.00
15272;BME280;7737;51.578;7.268;2023-05-07T03:07:32;101121.16;;;14.05;100.00
15272;BME280;7737;51.578;7.268;2023-05-07T03:09:59;101116.88;;;14.02;100.00
15272;BME280;7737;51.578;7.268;2023-05-07T03:12:26;101117.53;;;14.06;100.00
15272;BME280;7737;51.578;7.268;2023-05-07T03:14:52;101122.69;;;14.09;100.00
15272;BME280;7737;51.578;7.268;2023-05-07T03:17:20;101132.34;;;14.12;100.00
15272;BME280;7737;51.578;7.268;2023-05-07T03:19:46;101129.84;;;14.09;100.00
15272;BME280;7737;51.578;7.268;2023-05-07T03:22:13;101127.56;;;14.02;100.00
15272;BME280;7737;51.578;7.268;2023-05-07T03:24:41;101126.75;;;14.00;100.00
15272;BME280;7737;51.578;7.268;2023-05-07T03:27:08;101132.72;;;14.06;100.00
15272;BME280;7737;51.578;7.268;2023-05-07T03:29:34;101131.94;;;14.03;100.00
15272;BME280;7737;51.578;7.268;2023-05-07T03:32:01;101137.56;;;13.99;100.00
15272;BME280;7737;51.578;7.268;2023-05-07T03:34:27;101136.69;;;13.98;100.00
15272;BME280;7737;51.578;7.268;2023-05-07T03:36:54;101135.75;;;13.99;100.00
15272;BME280;7737;51.578;7.268;2023-05-07T03:39:21;101136.63;;;14.00;100.00
15272;BME280;7737;51.578;7.268;2023-05-07T03:41:48;101141.09;;;13.99;100.00
15272;BME280;7737;51.578;7.268;2023-05-07T03:44:15;101138.59;;;13.96;100.00
15272;BME280;7737;51.578;7.268;2023-05-07T03:46:41;101141.16;;;13.98;100.00
15272;BME280;7737;51.578;7.268;2023-05-07T03:49:08;101135.81;;;13.98;100.00
15272;BME280;7737;51.578;7.268;2023-05-07T03:51:35;101144.09;;;13.93;100.00
15272;BME280;7737;51.578;7.268;2023-05-07T03:54:02;101141.53;;;13.92;100.00
15272;BME280;7737;51.578;7.268;2023-05-07T03:56:28;101142.72;;;13.86;100.00
15272;BME280;7737;51.578;7.268;2023-05-07T03:58:57;101138.25;;;13.87;100.00
15272;BME280;7737;51.578;7.268;2023-05-07T04:01:24;101146.88;;;13.92;100.00
15272;BME280;7737;51.578;7.268;2023-05-07T04:03:51;101150.81;;;13.85;100.00
15272;BME280;7737;51.578;7.268;2023-05-07T04:06:17;101151.09;;;13.80;100.00
15272;BME280;7737;51.578;7.268;2023-05-07T04:08:44;101154.97;;;13.90;100.00
15272;BME280;7737;51.578;7.268;2023-05-07T04:11:10;101158.84;;;13.85;100.00
15272;BME280;7737;51.578;7.268;2023-05-07T04:13:37;101166.84;;;13.85;100.00
15272;BME280;7737;51.578;7.268;2023-05-07T04:16:05;101157.47;;;13.78;100.00
15272;BME280;7737;51.578;7.268;2023-05-07T04:18:32;101150.47;;;13.75;100.00
15272;BME280;7737;51.578;7.268;2023-05-07T04:20:58;101151.34;;;13.76;100.00
15272;BME280;7737;51.578;7.268;2023-05-07T04:23:25;101155.31;;;13.84;100.00
15272;BME280;7737;51.578;7.268;2023-05-07T04:25:52;101164.28;;;13.83;100.00
15272;BME280;7737;51.578;7.268;2023-05-07T04:28:19;101157.03;;;13.85;100.00
15272;BME280;7737;51.578;7.268;2023-05-07T04:30:46;101162.22;;;13.88;100.00
15272;BME280;7737;51.578;7.268;2023-05-07T04:33:15;101160.47;;;13.87;100.00
15272;BME280;7737;51.578;7.268;2023-05-07T04:35:42;101159.03;;;13.97;100.00
15272;BME280;7737;51.578;7.268;2023-05-07T04:38:08;101161.88;;;13.94;100.00
15272;BME280;7737;51.578;7.268;2023-05-07T04:40:35;101164.28;;;13.99;100.00
15272;BME280;7737;51.578;7.268;2023-05-07T04:43:02;101167.22;;;13.94;100.00
15272;BME280;7737;51.578;7.268;2023-05-07T04:45:29;101163.69;;;14.10;100.00
15272;BME280;7737;51.578;7.268;2023-05-07T04:47:56;101169.28;;;14.05;100.00
15272;BME280;7737;51.578;7.268;2023-05-07T04:50:24;101163.84;;;14.07;100.00
15272;BME280;7737;51.578;7.268;2023-05-07T04:52:51;101168.56;;;14.17;100.00
15272;BME280;7737;51.578;7.268;2023-05-07T04:55:17;101176.69;;;14.16;100.00
15272;BME280;7737;51.578;7.268;2023-05-07T04:57:44;101179.81;;;14.24;100.00
15272;BME280;7737;51.578;7.268;2023-05-07T05:00:11;101186.84;;;14.25;100.00
15272;BME280;7737;51.578;7.268;2023-05-07T05:02:39;101177.91;;;14.26;100.00
15272;BME280;7737;51.578;7.268;2023-05-07T05:05:06;101181.50;;;14.40;100.00
15272;BME280;7737;51.578;7.268;2023-05-07T05:07:35;101190.00;;;14.33;100.00
15272;BME280;7737;51.578;7.268;2023-05-07T05:10:02;101186.84;;;14.25;100.00
15272;BME280;7737;51.578;7.268;2023-05-07T05:12:29;101198.81;;;14.35;100.00
15272;BME280;7737;51.578;7.268;2023-05-07T05:14:55;101185.94;;;14.41;100.00
15272;BME280;7737;51.578;7.268;2023-05-07T05:17:22;101183.53;;;14.37;100.00
15272;BME280;7737;51.578;7.268;2023-05-07T05:19:49;101187.25;;;14.34;100.00
15272;BME280;7737;51.578;7.268;2023-05-07T05:22:16;101189.81;;;14.36;100.00
15272;BME280;7737;51.578;7.268;2023-05-07T05:24:44;101186.69;;;14.43;100.00
15272;BME280;7737;51.578;7.268;2023-05-07T05:27:10;101191.97;;;14.45;100.00
15272;BME280;7737;51.578;7.268;2023-05-07T05:29:37;101190.69;;;14.36;100.00
15272;BME280;7737;51.578;7.268;2023-05-07T05:32:03;101194.47;;;14.48;100.00
15272;BME280;7737;51.578;7.268;2023-05-07T05:34:30;101203.63;;;14.44;100.00
15272;BME280;7737;51.578;7.268;2023-05-07T05:36:58;101201.53;;;14.49;100.00
15272;BME280;7737;51.578;7.268;2023-05-07T05:39:25;101202.09;;;14.40;100.00
15272;BME280;7737;51.578;7.268;2023-05-07T05:41:53;101208.44;;;14.53;100.00
15272;BME280;7737;51.578;7.268;2023-05-07T05:44:20;101210.75;;;14.59;100.00
15272;BME280;7737;51.578;7.268;2023-05-07T05:46:46;101210.16;;;14.54;100.00
15272;BME280;7737;51.578;7.268;2023-05-07T05:49:14;101205.63;;;14.70;100.00
15272;BME280;7737;51.578;7.268;2023-05-07T05:51:41;101198.38;;;14.72;100.00
15272;BME280;7737;51.578;7.268;2023-05-07T05:54:08;101204.50;;;14.74;100.00
15272;BME280;7737;51.578;7.268;2023-05-07T05:56:34;101201.44;;;14.66;100.00
15272;BME280;7737;51.578;7.268;2023-05-07T05:59:03;101195.63;;;14.74;100.00
15272;BME280;7737;51.578;7.268;2023-05-07T06:01:29;101202.31;;;14.81;100.00
15272;BME280;7737;51.578;7.268;2023-05-07T06:03:56;101199.41;;;14.99;100.00
15272;BME280;7737;51.578;7.268;2023-05-07T06:06:23;101198.28;;;15.17;100.00
15272;BME280;7737;51.578;7.268;2023-05-07T06:08:49;101191.88;;;15.20;100.00
15272;BME280;7737;51.578;7.268;2023-05-07T06:11:16;101191.22;;;15.16;100.00
15272;BME280;7737;51.578;7.268;2023-05-07T06:13:42;101191.03;;;15.34;100.00
15272;BME280;7737;51.578;7.268;2023-05-07T06:16:10;101191.53;;;15.40;100.00
15272;BME280;7737;51.578;7.268;2023-05-07T06:18:37;101202.75;;;15.47;100.00
15272;BME280;7737;51.578;7.268;2023-05-07T06:21:04;101198.66;;;15.69;100.00
15272;BME280;7737;51.578;7.268;2023-05-07T06:23:30;101201.31;;;15.83;100.00
15272;BME280;7737;51.578;7.268;2023-05-07T06:25:57;101201.31;;;15.83;100.00
15272;BME280;7737;51.578;7.268;2023-05-07T06:28:24;101196.44;;;15.90;100.00
15272;BME280;7737;51.578;7.268;2023-05-07T06:30:50;101199.53;;;15.70;100.00
15272;BME280;7737;51.578;7.268;2023-05-07T06:33:18;101197.84;;;15.96;100.00
15272;BME280;7737;51.578;7.268;2023-05-07T06:35:45;101194.16;;;15.70;100.00
15272;BME280;7737;51.578;7.268;2023-05-07T06:38:11;101210.97;;;15.86;100.00
15272;BME280;7737;51.578;7.268;2023-05-07T06:40:38;101205.06;;;15.67;100.00
15272;BME280;7737;51.578;7.268;2023-05-07T06:43:05;101199.88;;;15.92;100.00
15272;BME280;7737;51.578;7.268;2023-05-07T06:45:31;101202.84;;;15.88;100.00
15272;BME280;7737;51.578;7.268;2023-05-07T06:47:58;101199.78;;;15.79;100.00
15272;BME280;7737;51.578;7.268;2023-05-07T06:50:26;101197.38;;;16.03;100.00
15272;BME280;7737;51.578;7.268;2023-05-07T06:52:52;101192.75;;;16.05;100.00
15272;BME280;7737;51.578;7.268;2023-05-07T06:55:19;101185.44;;;16.21;100.00
15272;BME280;7737;51.578;7.268;2023-05-07T06:57:46;101177.56;;;16.32;100.00
15272;BME280;7737;51.578;7.268;2023-05-07T07:00:13;101184.91;;;16.02;100.00
15272;BME280;7737;51.578;7.268;2023-05-07T07:02:40;101184.75;;;16.18;100.00
15272;BME280;7737;51.578;7.268;2023-05-07T07:05:07;101180.94;;;16.22;100.00
15272;BME280;7737;51.578;7.268;2023-05-07T07:07:35;101176.72;;;16.18;100.00
15272;BME280;7737;51.578;7.268;2023-05-07T07:10:02;101165.72;;;16.22;100.00
15272;BME280;7737;51.578;7.268;2023-05-07T07:12:29;101170.94;;;16.51;100.00
15272;BME280;7737;51.578;7.268;2023-05-07T07:14:56;101169.91;;;16.26;100.00
15272;BME280;7737;51.578;7.268;2023-05-07T07:17:23;101161.47;;;16.45;100.00
15272;BME280;7737;51.578;7.268;2023-05-07T07:19:49;101169.84;;;16.55;100.00
15272;BME280;7737;51.578;7.268;2023-05-07T07:22:16;101164.63;;;16.52;100.00
15272;BME280;7737;51.578;7.268;2023-05-07T07:24:44;101161.00;;;16.53;100.00
15272;BME280;7737;51.578;7.268;2023-05-07T07:27:11;101153.44;;;16.84;100.00
15272;BME280;7737;51.578;7.268;2023-05-07T07:29:37;101151.56;;;17.12;100.00
15272;BME280;7737;51.578;7.268;2023-05-07T07:32:04;101154.53;;;16.94;100.00
15272;BME280;7737;51.578;7.268;2023-05-07T07:34:31;101152.63;;;16.96;100.00
15272;BME280;7737;51.578;7.268;2023-05-07T07:36:58;101158.00;;;17.22;100.00
15272;BME280;7737;51.578;7.268;2023-05-07T07:39:30;101164.44;;;17.19;100.00
15272;BME280;7737;51.578;7.268;2023-05-07T07:41:58;101156.19;;;17.22;100.00
15272;BME280;7737;51.578;7.268;2023-05-07T07:44:25;101153.25;;;17.00;100.00
15272;BME280;7737;51.578;7.268;2023-05-07T07:46:51;101152.84;;;16.93;100.00
15272;BME280;7737;51.578;7.268;2023-05-07T07:49:18;101158.63;;;16.87;100.00
15272;BME280;7737;51.578;7.268;2023-05-07T07:51:45;101160.34;;;16.88;100.00
15272;BME280;7737;51.578;7.268;2023-05-07T07:54:11;101162.16;;;16.88;100.00
15272;BME280;7737;51.578;7.268;2023-05-07T07:56:38;101162.59;;;16.94;100.00
15272;BME280;7737;51.578;7.268;2023-05-07T07:59:06;101158.53;;;17.27;100.00
15272;BME280;7737;51.578;7.268;2023-05-07T08:01:33;101163.59;;;17.31;100.00
15272;BME280;7737;51.578;7.268;2023-05-07T08:03:59;101162.94;;;17.40;100.00
15272;BME280;7737;51.578;7.268;2023-05-07T08:06:28;101172.41;;;17.33;100.00
15272;BME280;7737;51.578;7.268;2023-05-07T08:08:55;101168.56;;;17.62;100.00
15272;BME280;7737;51.578;7.268;2023-05-07T08:11:21;101168.34;;;17.66;100.00
15272;BME280;7737;51.578;7.268;2023-05-07T08:13:48;101168.75;;;17.47;100.00
15272;BME280;7737;51.578;7.268;2023-05-07T08:16:16;101170.50;;;17.60;100.00
15272;BME280;7737;51.578;7.268;2023-05-07T08:18:43;101170.88;;;17.92;100.00
15272;BME280;7737;51.578;7.268;2023-05-07T08:21:10;101170.13;;;17.78;100.00
15272;BME280;7737;51.578;7.268;2023-05-07T08:23:37;101168.09;;;17.69;100.00
15272;BME280;7737;51.578;7.268;2023-05-07T08:26:03;101175.84;;;17.35;100.00
15272;BME280;7737;51.578;7.268;2023-05-07T08:28:30;101169.03;;;17.80;100.00
15272;BME280;7737;51.578;7.268;2023-05-07T08:30:57;101171.34;;;17.61;100.00
15272;BME280;7737;51.578;7.268;2023-05-07T08:33:27;101174.03;;;17.61;100.00
15272;BME280;7737;51.578;7.268;2023-05-07T08:35:54;101173.34;;;17.83;100.00
15272;BME280;7737;51.578;7.268;2023-05-07T08:38:20;101176.22;;;18.05;100.00
15272;BME280;7737;51.578;7.268;2023-05-07T08:40:47;101174.91;;;17.98;100.00
15272;BME280;7737;51.578;7.268;2023-05-07T08:43:14;101172.03;;;17.88;100.00
15272;BME280;7737;51.578;7.268;2023-05-07T08:45:41;101172.00;;;17.64;100.00
15272;BME280;7737;51.578;7.268;2023-05-07T08:48:10;101171.34;;;18.10;100.00
15272;BME280;7737;51.578;7.268;2023-05-07T08:50:41;101166.06;;;18.08;100.00
15272;BME280;7737;51.578;7.268;2023-05-07T08:53:08;101167.34;;;18.15;100.00
15272;BME280;7737;51.578;7.268;2023-05-07T08:55:35;101171.72;;;18.29;100.00
15272;BME280;7737;51.578;7.268;2023-05-07T08:58:01;101169.69;;;18.20;100.00
15272;BME280;7737;51.578;7.268;2023-05-07T09:00:28;101169.69;;;17.84;100.00
15272;BME280;7737;51.578;7.268;2023-05-07T09:02:55;101168.88;;;18.07;100.00
15272;BME280;7737;51.578;7.268;2023-05-07T09:05:22;101173.94;;;17.99;100.00
15272;BME280;7737;51.578;7.268;2023-05-07T09:07:50;101170.09;;;18.03;100.00
15272;BME280;7737;51.578;7.268;2023-05-07T09:10:17;101166.66;;;18.24;100.00
15272;BME280;7737;51.578;7.268;2023-05-07T09:12:46;101170.13;;;18.14;100.00
15272;BME280;7737;51.578;7.268;2023-05-07T09:15:13;101167.66;;;18.47;100.00
15272;BME280;7737;51.578;7.268;2023-05-07T09:17:39;101171.72;;;18.29;100.00
15272;BME280;7737;51.578;7.268;2023-05-07T09:20:08;101169.59;;;18.69;100.00
15272;BME280;7737;51.578;7.268;2023-05-07T09:22:36;101161.22;;;18.96;100.00
15272;BME280;7737;51.578;7.268;2023-05-07T09:25:05;101161.88;;;19.10;100.00
15272;BME280;7737;51.578;7.268;2023-05-07T09:27:32;101166.09;;;18.91;100.00
15272;BME280;7737;51.578;7.268;2023-05-07T09:29:59;101164.13;;;18.81;100.00
15272;BME280;7737;51.578;7.268;2023-05-07T09:32:29;101153.66;;;19.12;100.00
15272;BME280;7737;51.578;7.268;2023-05-07T09:34:55;101152.94;;;19.10;100.00
15272;BME280;7737;51.578;7.268;2023-05-07T09:37:22;101156.31;;;19.47;100.00
15272;BME280;7737;51.578;7.268;2023-05-07T09:39:49;101147.88;;;19.40;100.00
15272;BME280;7737;51.578;7.268;2023-05-07T09:42:22;101154.72;;;19.66;100.00
15272;BME280;7737;51.578;7.268;2023-05-07T09:44:50;101147.03;;;20.16;100.00
15272;BME280;7737;51.578;7.268;2023-05-07T09:47:18;101153.81;;;20.10;100.00
15272;BME280;7737;51.578;7.268;2023-05-07T09:49:47;101151.66;;;19.93;100.00
15272;BME280;7737;51.578;7.268;2023-05-07T09:52:14;101131.75;;;19.94;100.00
15272;BME280;7737;51.578;7.268;2023-05-07T09:54:43;101130.53;;;19.87;100.00
15272;BME280;7737;51.578;7.268;2023-05-07T09:57:11;101128.22;;;20.36;100.00
15272;BME280;7737;51.578;7.268;2023-05-07T09:59:42;101132.03;;;19.69;100.00
15272;BME280;7737;51.578;7.268;2023-05-07T10:02:09;101123.81;;;19.59;100.00
15272;BME280;7737;51.578;7.268;2023-05-07T10:04:36;101128.34;;;19.81;100.00
15272;BME280;7737;51.578;7.268;2023-05-07T10:07:04;101128.16;;;20.04;100.00
15272;BME280;7737;51.578;7.268;2023-05-07T10:09:31;101116.97;;;19.66;100.00
15272;BME280;7737;51.578;7.268;2023-05-07T10:11:58;101126.25;;;19.73;100.00
15272;BME280;7737;51.578;7.268;2023-05-07T10:14:27;101118.41;;;19.92;100.00
15272;BME280;7737;51.578;7.268;2023-05-07T10:16:55;101114.31;;;20.73;100.00
15272;BME280;7737;51.578;7.268;2023-05-07T10:19:23;101125.25;;;20.71;100.00
15272;BME280;7737;51.578;7.268;2023-05-07T10:21:55;101117.59;;;20.24;100.00
15272;BME280;7737;51.578;7.268;2023-05-07T10:24:28;101113.56;;;20.50;100.00
15272;BME280;7737;51.578;7.268;2023-05-07T10:26:58;101111.34;;;20.96;100.00
15272;BME280;7737;51.578;7.268;2023-05-07T10:29:33;101108.66;;;20.96;100.00
15272;BME280;7737;51.578;7.268;2023-05-07T10:32:19;101086.56;;;20.91;100.00
15272;BME280;7737;51.578;7.268;2023-05-07T10:34:53;101084.88;;;21.51;100.00
15272;BME280;7737;51.578;7.268;2023-05-07T10:37:21;101086.38;;;21.74;100.00
15272;BME280;7737;51.578;7.268;2023-05-07T10:39:49;101079.84;;;21.37;100.00
15272;BME280;7737;51.578;7.268;2023-05-07T10:42:16;101085.66;;;21.62;100.00
15272;BME280;7737;51.578;7.268;2023-05-07T10:44:43;101075.19;;;21.48;100.00
15272;BME280;7737;51.578;7.268;2023-05-07T10:47:12;101083.38;;;21.28;100.00
15272;BME280;7737;51.578;7.268;2023-05-07T10:52:38;101077.69;;;21.31;100.00
15272;BME280;7737;51.578;7.268;2023-05-07T10:55:21;101079.75;;;21.48;100.00
15272;BME280;7737;51.578;7.268;2023-05-07T10:57:50;101071.38;;;22.19;100.00
15272;BME280;7737;51.578;7.268;2023-05-07T11:00:42;101062.06;;;21.83;100.00
15272;BME280;7737;51.578;7.268;2023-05-07T11:03:10;101055.63;;;21.75;100.00
15272;BME280;7737;51.578;7.268;2023-05-07T11:05:37;101061.84;;;22.44;100.00
15272;BME280;7737;51.578;7.268;2023-05-07T11:08:05;101039.88;;;22.37;100.00
15272;BME280;7737;51.578;7.268;2023-05-07T11:10:51;101029.19;;;22.07;100.00
15272;BME280;7737;51.578;7.268;2023-05-07T11:13:42;101060.56;;;22.38;100.00
15272;BME280;7737;51.578;7.268;2023-05-07T11:16:17;101055.56;;;22.15;100.00
15272;BME280;7737;51.578;7.268;2023-05-07T11:18:49;101038.59;;;22.41;100.00
15272;BME280;7737;51.578;7.268;2023-05-07T11:21:32;101041.72;;;22.27;100.00
15272;BME280;7737;51.578;7.268;2023-05-07T11:23:59;101040.03;;;22.17;100.00
15272;BME280;7737;51.578;7.268;2023-05-07T11:26:27;101037.47;;;22.15;100.00
15272;BME280;7737;51.578;7.268;2023-05-07T11:28:54;101027.31;;;22.27;100.00
15272;BME280;7737;51.578;7.268;2023-05-07T11:31:24;101039.16;;;22.55;100.00
15272;BME280;7737;51.578;7.268;2023-05-07T11:33:53;101022.63;;;22.00;100.00
15272;BME280;7737;51.578;7.268;2023-05-07T11:36:22;101016.63;;;22.64;100.00
15272;BME280;7737;51.578;7.268;2023-05-07T11:38:49;100999.25;;;21.99;100.00
15272;BME280;7737;51.578;7.268;2023-05-07T11:41:16;101005.53;;;22.28;100.00
15272;BME280;7737;51.578;7.268;2023-05-07T11:43:58;101021.50;;;22.03;100.00
15272;BME280;7737;51.578;7.268;2023-05-07T11:46:26;101006.94;;;22.32;100.00
15272;BME280;7737;51.578;7.268;2023-05-07T11:48:54;100997.53;;;22.17;100.00
15272;BME280;7737;51.578;7.268;2023-05-07T11:51:22;101013.44;;;22.87;100.00
15272;BME280;7737;51.578;7.268;2023-05-07T11:53:50;101007.34;;;22.57;100.00
15272;BME280;7737;51.578;7.268;2023-05-07T11:56:17;101008.63;;;22.43;100.00
15272;BME280;7737;51.578;7.268;2023-05-07T11:58:45;101006.41;;;22.29;100.00
15272;BME280;7737;51.578;7.268;2023-05-07T12:01:13;101005.75;;;21.77;100.00
15272;BME280;7737;51.578;7.268;2023-05-07T12:03:41;101013.94;;;22.25;100.00
15272;BME280;7737;51.578;7.268;2023-05-07T12:06:10;100989.44;;;22.92;100.00
15272;BME280;7737;51.578;7.268;2023-05-07T12:08:38;101001.44;;;22.80;100.00
15272;BME280;7737;51.578;7.268;2023-05-07T12:11:08;100998.09;;;22.50;100.00
15272;BME280;7737;51.578;7.268;2023-05-07T12:13:36;100984.97;;;22.45;100.00
15272;BME280;7737;51.578;7.268;2023-05-07T12:16:05;100986.66;;;22.56;100.00
15272;BME280;7737;51.578;7.268;2023-05-07T12:18:33;100994.34;;;23.43;100.00
15272;BME280;7737;51.578;7.268;2023-05-07T12:21:00;101002.53;;;23.61;100.00
15272;BME280;7737;51.578;7.268;2023-05-07T12:23:28;100986.16;;;22.89;100.00
15272;BME280;7737;51.578;7.268;2023-05-07T12:25:55;101015.00;;;23.17;100.00
15272;BME280;7737;51.578;7.268;2023-05-07T12:28:22;100982.81;;;23.04;100.00
15272;BME280;7737;51.578;7.268;2023-05-07T12:30:50;101000.09;;;23.40;100.00
15272;BME280;7737;51.578;7.268;2023-05-07T12:33:17;100991.13;;;23.03;100.00
15272;BME280;7737;51.578;7.268;2023-05-07T12:35:47;100989.47;;;22.83;100.00
15272;BME280;7737;51.578;7.268;2023-05-07T12:38:15;101002.88;;;22.84;100.00
15272;BME280;7737;51.578;7.268;2023-05-07T12:40:44;101009.22;;;22.66;100.00
15272;BME280;7737;51.578;7.268;2023-05-07T12:43:16;101028.47;;;23.09;100.00
15272;BME280;7737;51.578;7.268;2023-05-07T12:45:44;101008.09;;;22.39;100.00
15272;BME280;7737;51.578;7.268;2023-05-07T12:48:11;100996.38;;;22.68;100.00
15272;BME280;7737;51.578;7.268;2023-05-07T12:50:38;101024.88;;;22.81;100.00
15272;BME280;7737;51.578;7.268;2023-05-07T12:53:05;101035.88;;;22.61;100.00
15272;BME280;7737;51.578;7.268;2023-05-07T12:55:40;101033.00;;;22.62;100.00